createdAt,value
2019-03-06T00:00:06.934Z,6.50
2019-03-06T00:02:38.129Z,5.30
2019-03-06T00:05:09.689Z,6.80
2019-03-06T00:07:40.784Z,6.07
2019-03-06T00:10:27.424Z,6.20
2019-03-06T00:12:58.544Z,7.20
2019-03-06T00:15:29.397Z,6.00
2019-03-06T00:18:00.198Z,6.53
2019-03-06T00:20:31.159Z,6.13
2019-03-06T00:23:02.620Z,5.87
2019-03-06T00:25:33.721Z,6.57
2019-03-06T00:28:04.563Z,5.90
2019-03-06T00:30:36.079Z,6.87
2019-03-06T00:33:06.724Z,5.90
2019-03-06T00:35:41.469Z,6.13
2019-03-06T00:38:12.329Z,7.17
2019-03-06T00:40:51.601Z,6.87
2019-03-06T00:43:22.481Z,7.20
2019-03-06T00:45:53.669Z,6.70
2019-03-06T00:48:24.774Z,7.77
2019-03-06T00:50:55.507Z,7.57
2019-03-06T00:53:26.753Z,7.40
2019-03-06T00:55:57.994Z,6.50
2019-03-06T00:58:29.058Z,7.03
2019-03-06T01:01:00.059Z,7.97
2019-03-06T01:03:31.117Z,6.27
2019-03-06T01:06:02.424Z,7.27
2019-03-06T01:08:33.763Z,7.10
2019-03-06T01:11:04.914Z,6.70
2019-03-06T01:13:35.953Z,7.20
2019-03-06T01:16:06.804Z,7.07
2019-03-06T01:18:38.264Z,7.27
2019-03-06T01:21:09.383Z,6.00
2019-03-06T01:23:40.189Z,5.50
2019-03-06T01:26:11.509Z,7.97
2019-03-06T01:28:42.684Z,6.30
2019-03-06T01:31:14.143Z,6.40
2019-03-06T01:34:09.969Z,5.97
2019-03-06T01:36:48.614Z,7.23
2019-03-06T01:39:28.240Z,7.27
2019-03-06T01:42:20.874Z,7.60
2019-03-06T01:44:55.203Z,7.50
2019-03-06T01:47:26.149Z,6.43
2019-03-06T01:49:57.323Z,7.37
2019-03-06T01:52:28.863Z,6.90
2019-03-06T01:54:59.668Z,6.77
2019-03-06T01:57:30.654Z,8.17
2019-03-06T02:00:01.809Z,8.13
2019-03-06T02:02:32.970Z,7.20
2019-03-06T02:05:04.060Z,7.80
2019-03-06T02:07:34.923Z,7.87
2019-03-06T02:10:06.644Z,7.90
2019-03-06T02:12:37.369Z,7.33
2019-03-06T02:15:08.868Z,7.70
2019-03-06T02:17:40.115Z,7.13
2019-03-06T02:20:13.289Z,7.23
2019-03-06T02:22:44.608Z,7.03
2019-03-06T02:25:15.804Z,6.40
2019-03-06T02:27:47.023Z,7.17
2019-03-06T02:30:20.314Z,6.70
2019-03-06T02:32:51.328Z,7.60
2019-03-06T02:35:22.688Z,7.20
2019-03-06T02:37:53.835Z,7.10
2019-03-06T02:40:24.628Z,7.80
2019-03-06T02:42:55.399Z,7.17
2019-03-06T02:45:26.810Z,6.90
2019-03-06T02:47:58.013Z,8.47
2019-03-06T02:50:28.958Z,7.67
2019-03-06T02:53:00.143Z,8.03
2019-03-06T02:55:31.240Z,6.37
2019-03-06T02:58:20.977Z,6.13
2019-03-06T03:01:13.349Z,5.80
2019-03-06T03:04:09.160Z,6.57
2019-03-06T03:06:46.508Z,5.70
2019-03-06T03:09:21.337Z,6.00
2019-03-06T03:11:52.269Z,7.17
2019-03-06T03:14:23.257Z,6.63
2019-03-06T03:16:54.496Z,8.20
2019-03-06T03:19:25.758Z,6.63
2019-03-06T03:21:56.607Z,7.03
2019-03-06T03:24:27.943Z,7.17
2019-03-06T03:26:59.081Z,7.30
2019-03-06T03:29:29.992Z,6.23
2019-03-06T03:32:01.025Z,7.23
2019-03-06T03:34:31.842Z,7.77
2019-03-06T03:37:02.728Z,7.97
2019-03-06T03:39:33.871Z,8.30
2019-03-06T03:42:04.798Z,7.83
2019-03-06T03:44:35.974Z,8.53
2019-03-06T03:47:06.853Z,9.33
2019-03-06T03:49:37.930Z,8.33
2019-03-06T03:52:08.781Z,6.87
2019-03-06T03:54:39.663Z,7.17
2019-03-06T03:57:10.764Z,7.07
2019-03-06T03:59:41.915Z,7.50
2019-03-06T04:02:13.039Z,8.03
2019-03-06T04:04:43.839Z,6.00
2019-03-06T04:07:14.643Z,7.60
2019-03-06T04:09:46.077Z,7.63
2019-03-06T04:12:17.014Z,7.40
2019-03-06T04:14:48.063Z,8.50
2019-03-06T04:17:18.918Z,8.20
2019-03-06T04:19:49.754Z,8.47
2019-03-06T04:22:20.813Z,8.93
2019-03-06T04:24:52.216Z,6.93
2019-03-06T04:27:23.500Z,8.73
2019-03-06T04:29:54.303Z,8.83
2019-03-06T04:32:25.629Z,9.23
2019-03-06T04:34:56.842Z,9.67
2019-03-06T04:37:28.138Z,9.37
2019-03-06T04:39:59.383Z,8.87
2019-03-06T04:42:30.173Z,8.77
2019-03-06T04:45:01.583Z,8.83
2019-03-06T04:47:32.478Z,8.00
2019-03-06T04:50:03.329Z,9.37
2019-03-06T04:52:34.187Z,9.17
2019-03-06T04:55:05.846Z,7.93
2019-03-06T04:57:37.039Z,8.00
2019-03-06T05:00:08.688Z,8.17
2019-03-06T05:02:39.629Z,7.17
2019-03-06T05:05:11.133Z,8.07
2019-03-06T05:07:42.369Z,8.20
2019-03-06T05:10:13.618Z,6.73
2019-03-06T05:12:44.714Z,5.40
2019-03-06T05:15:15.743Z,6.40
2019-03-06T05:18:08.696Z,6.50
2019-03-06T05:20:39.568Z,7.30
2019-03-06T05:23:10.499Z,8.30
2019-03-06T05:25:41.449Z,10.03
2019-03-06T05:28:12.342Z,8.60
2019-03-06T05:30:43.127Z,7.50
2019-03-06T05:33:15.030Z,7.43
2019-03-06T05:36:10.874Z,7.77
2019-03-06T05:38:46.743Z,7.97
2019-03-06T05:41:17.704Z,8.13
2019-03-06T05:43:48.618Z,8.10
2019-03-06T05:46:19.904Z,9.43
2019-03-06T05:48:50.884Z,8.43
2019-03-06T05:51:22.003Z,8.20
2019-03-06T05:53:52.834Z,8.20
2019-03-06T05:56:23.650Z,10.03
2019-03-06T05:58:54.400Z,8.13
2019-03-06T06:01:25.334Z,8.63
2019-03-06T06:03:56.178Z,8.87
2019-03-06T06:06:27.358Z,8.27
2019-03-06T06:08:58.173Z,7.83
2019-03-06T06:11:29.046Z,7.27
2019-03-06T06:14:00.630Z,8.00
2019-03-06T06:16:31.763Z,7.30
2019-03-06T06:19:02.631Z,7.83
2019-03-06T06:21:46.359Z,7.73
2019-03-06T06:24:23.784Z,8.23
2019-03-06T06:26:54.769Z,8.63
2019-03-06T06:29:25.618Z,9.40
2019-03-06T06:31:56.544Z,9.80
2019-03-06T06:34:27.503Z,11.20
2019-03-06T06:36:58.209Z,10.33
2019-03-06T06:39:29.004Z,10.63
2019-03-06T06:41:59.883Z,11.33
2019-03-06T06:44:30.703Z,12.30
2019-03-06T06:47:01.533Z,11.03
2019-03-06T06:49:32.588Z,11.67
2019-03-06T06:52:38.099Z,12.90
2019-03-06T06:55:45.380Z,11.50
2019-03-06T06:58:56.469Z,9.67
2019-03-06T07:01:45.168Z,10.17
2019-03-06T07:05:05.204Z,9.63
2019-03-06T07:07:54.754Z,9.17
2019-03-06T07:10:41.678Z,8.67
2019-03-06T07:13:31.144Z,9.97
2019-03-06T07:16:35.423Z,8.53
2019-03-06T07:19:11.687Z,9.23
2019-03-06T07:21:59.714Z,9.47
2019-03-06T07:24:47.904Z,9.63
2019-03-06T07:27:32.353Z,10.67
2019-03-06T07:30:27.992Z,10.13
2019-03-06T07:33:14.798Z,10.00
2019-03-06T07:36:25.553Z,10.73
2019-03-06T07:39:17.968Z,10.23
2019-03-06T07:42:10.749Z,10.40
2019-03-06T07:45:00.358Z,9.90
2019-03-06T07:47:48.020Z,10.37
2019-03-06T07:50:50.095Z,10.40
2019-03-06T07:54:02.544Z,9.33
2019-03-06T07:56:36.674Z,8.17
2019-03-06T07:59:07.469Z,7.53
2019-03-06T08:01:44.903Z,8.07
2019-03-06T08:04:17.498Z,8.77
2019-03-06T08:06:54.083Z,8.80
2019-03-06T08:09:24.910Z,9.73
2019-03-06T08:12:00.985Z,9.23
2019-03-06T08:15:05.699Z,9.20
2019-03-06T08:18:04.211Z,8.80
2019-03-06T08:20:53.699Z,8.53
2019-03-06T08:23:47.356Z,9.23
2019-03-06T08:26:18.245Z,8.73
2019-03-06T08:28:49.183Z,9.80
2019-03-06T08:31:27.743Z,8.43
2019-03-06T08:33:58.654Z,8.77
2019-03-06T08:36:29.919Z,9.73
2019-03-06T08:39:00.814Z,9.57
2019-03-06T08:41:31.515Z,10.07
2019-03-06T08:44:02.449Z,9.70
2019-03-06T08:46:52.109Z,10.30
2019-03-06T08:49:41.650Z,11.00
2019-03-06T08:52:20.704Z,10.40
2019-03-06T08:55:10.931Z,12.43
2019-03-06T08:58:02.937Z,11.40
2019-03-06T09:00:58.424Z,10.33
2019-03-06T09:03:48.124Z,9.60
2019-03-06T09:06:25.474Z,10.30
2019-03-06T09:09:08.924Z,11.13
2019-03-06T09:12:01.129Z,10.90
2019-03-06T09:14:47.514Z,10.83
2019-03-06T09:17:40.597Z,11.77
2019-03-06T09:20:36.123Z,10.93
2019-03-06T09:23:23.035Z,11.60
2019-03-06T09:25:59.769Z,10.70
2019-03-06T09:28:36.701Z,11.60
2019-03-06T09:31:19.529Z,10.53
2019-03-06T09:34:04.634Z,12.03
2019-03-06T09:36:48.289Z,11.33
2019-03-06T09:39:41.503Z,11.27
2019-03-06T09:42:21.984Z,10.90
2019-03-06T09:45:01.783Z,11.40
2019-03-06T09:47:52.852Z,11.77
2019-03-06T09:50:45.228Z,11.17
2019-03-06T09:53:33.199Z,11.03
2019-03-06T09:56:11.473Z,12.20
2019-03-06T09:58:57.324Z,11.97
2019-03-06T10:01:55.936Z,11.17
2019-03-06T10:04:51.849Z,11.63
2019-03-06T10:07:32.760Z,11.80
2019-03-06T10:10:45.768Z,11.47
2019-03-06T10:13:26.448Z,12.97
2019-03-06T10:16:20.983Z,13.70
2019-03-06T10:19:16.290Z,15.37
2019-03-06T10:21:47.138Z,16.27
2019-03-06T10:24:17.942Z,15.53
2019-03-06T10:26:48.884Z,17.63
2019-03-06T10:29:19.682Z,19.47
2019-03-06T10:31:50.454Z,18.67
2019-03-06T10:34:21.339Z,21.50
2019-03-06T10:36:52.279Z,20.50
2019-03-06T10:39:23.134Z,20.53
2019-03-06T10:41:54.018Z,20.17
2019-03-06T10:44:29.454Z,21.47
2019-03-06T10:46:57.108Z,19.77
2019-03-06T10:49:28.239Z,20.40
2019-03-06T10:51:59.001Z,18.77
2019-03-06T10:54:29.834Z,17.00
2019-03-06T10:57:00.645Z,18.30
2019-03-06T10:59:31.634Z,16.93
2019-03-06T11:02:02.629Z,17.90
2019-03-06T11:04:49.408Z,16.80
2019-03-06T11:07:21.135Z,15.13
2019-03-06T11:09:51.929Z,16.13
2019-03-06T11:12:22.810Z,15.80
2019-03-06T11:14:53.779Z,15.50
2019-03-06T11:17:24.700Z,15.67
2019-03-06T11:19:55.688Z,16.03
2019-03-06T11:22:26.429Z,16.37
2019-03-06T11:24:57.134Z,13.80
2019-03-06T11:27:27.938Z,15.20
2019-03-06T11:29:58.964Z,16.20
2019-03-06T11:32:29.833Z,14.67
2019-03-06T11:35:00.634Z,13.80
2019-03-06T11:37:31.463Z,14.83
2019-03-06T11:40:02.349Z,13.63
2019-03-06T11:42:33.145Z,10.97
2019-03-06T11:45:04.158Z,9.27
2019-03-06T11:47:34.853Z,11.40
2019-03-06T11:50:06.299Z,16.47
2019-03-06T11:52:37.069Z,16.73
2019-03-06T11:55:08.340Z,12.93
2019-03-06T11:57:39.709Z,12.63
2019-03-06T12:00:20.774Z,15.23
2019-03-06T12:02:51.664Z,15.93
2019-03-06T12:05:22.439Z,15.40
2019-03-06T12:07:53.283Z,12.97
2019-03-06T12:10:24.539Z,15.93
2019-03-06T12:12:56.029Z,14.10
2019-03-06T12:15:26.843Z,13.90
2019-03-06T12:17:57.694Z,13.87
2019-03-06T12:20:28.528Z,15.03
2019-03-06T12:22:59.488Z,13.00
2019-03-06T12:25:30.518Z,11.90
2019-03-06T12:28:01.338Z,10.53
2019-03-06T12:30:32.311Z,11.07
2019-03-06T12:33:03.165Z,10.67
2019-03-06T12:35:33.923Z,11.60
2019-03-06T12:38:04.958Z,12.87
2019-03-06T12:40:36.339Z,12.03
2019-03-06T12:43:07.323Z,12.03
2019-03-06T12:45:38.233Z,11.07
2019-03-06T12:48:10.886Z,9.70
2019-03-06T12:50:41.718Z,10.13
2019-03-06T12:53:12.986Z,10.60
2019-03-06T12:55:43.968Z,9.30
2019-03-06T12:58:14.654Z,10.77
2019-03-06T13:00:45.318Z,9.87
2019-03-06T13:03:16.048Z,10.70
2019-03-06T13:05:46.833Z,10.83
2019-03-06T13:08:19.884Z,9.77
2019-03-06T13:10:50.018Z,10.70
2019-03-06T13:13:20.772Z,10.37
2019-03-06T13:15:51.529Z,7.93
2019-03-06T13:18:22.353Z,8.23
2019-03-06T13:20:53.693Z,7.93
2019-03-06T13:23:24.958Z,7.83
2019-03-06T13:25:56.079Z,8.17
2019-03-06T13:28:26.889Z,10.93
2019-03-06T13:30:57.633Z,9.13
2019-03-06T13:33:55.926Z,8.30
2019-03-06T13:36:26.888Z,9.63
2019-03-06T13:39:06.074Z,8.43
2019-03-06T13:41:30.054Z,9.87
2019-03-06T13:44:00.965Z,11.43
2019-03-06T13:46:31.919Z,10.00
2019-03-06T13:49:02.839Z,11.10
2019-03-06T13:51:33.789Z,10.70
2019-03-06T13:54:04.569Z,10.17
2019-03-06T13:56:35.475Z,10.60
2019-03-06T13:59:06.583Z,10.93
2019-03-06T14:01:37.238Z,11.93
2019-03-06T14:04:07.945Z,10.83
2019-03-06T14:06:38.829Z,11.77
2019-03-06T14:09:12.528Z,12.03
2019-03-06T14:11:43.354Z,11.63
2019-03-06T14:14:14.231Z,10.40
2019-03-06T14:16:45.124Z,9.57
2019-03-06T14:19:16.103Z,10.20
2019-03-06T14:21:47.044Z,10.37
2019-03-06T14:24:18.049Z,10.10
2019-03-06T14:26:48.949Z,9.50
2019-03-06T14:29:19.689Z,8.93
2019-03-06T14:31:50.653Z,10.10
2019-03-06T14:34:21.484Z,10.07
2019-03-06T14:36:52.188Z,10.27
2019-03-06T14:39:31.103Z,10.03
2019-03-06T14:42:02.619Z,11.10
2019-03-06T14:44:33.559Z,12.10
2019-03-06T14:47:04.478Z,10.47
2019-03-06T14:49:35.544Z,11.13
2019-03-06T14:52:07.531Z,11.03
2019-03-06T14:54:38.634Z,10.33
2019-03-06T14:57:09.414Z,9.60
2019-03-06T14:59:40.208Z,9.83
2019-03-06T15:02:11.374Z,11.70
2019-03-06T15:04:42.239Z,10.53
2019-03-06T15:07:12.934Z,9.77
2019-03-06T15:09:43.704Z,9.80
2019-03-06T15:12:14.519Z,10.47
2019-03-06T15:14:45.514Z,9.57
2019-03-06T15:17:16.513Z,9.97
2019-03-06T15:19:47.318Z,9.80
2019-03-06T15:22:18.073Z,9.57
2019-03-06T15:24:49.604Z,10.70
2019-03-06T15:27:20.619Z,10.67
2019-03-06T15:29:51.435Z,9.70
2019-03-06T15:32:22.298Z,9.87
2019-03-06T15:34:53.119Z,10.33
2019-03-06T15:37:23.894Z,11.13
2019-03-06T15:39:55.075Z,10.60
2019-03-06T15:42:26.109Z,11.53
2019-03-06T15:44:56.969Z,11.33
2019-03-06T15:47:33.585Z,11.40
2019-03-06T15:50:00.454Z,11.77
2019-03-06T15:52:31.645Z,11.50
2019-03-06T15:55:02.455Z,11.37
2019-03-06T15:57:34.025Z,12.47
2019-03-06T16:00:05.541Z,13.17
2019-03-06T16:02:36.374Z,12.07
2019-03-06T16:05:08.099Z,12.93
2019-03-06T16:07:39.025Z,13.20
2019-03-06T16:10:10.489Z,12.77
2019-03-06T16:12:41.510Z,13.07
2019-03-06T16:15:12.424Z,14.30
2019-03-06T16:17:43.649Z,12.50
2019-03-06T16:20:16.960Z,13.33
2019-03-06T16:22:48.552Z,12.77
2019-03-06T16:25:19.526Z,13.50
2019-03-06T16:27:50.569Z,14.20
2019-03-06T16:30:21.944Z,12.63
2019-03-06T16:32:52.796Z,14.73
2019-03-06T16:35:24.180Z,13.90
2019-03-06T16:37:55.194Z,13.50
2019-03-06T16:40:26.731Z,14.67
2019-03-06T16:42:57.704Z,15.33
2019-03-06T16:45:28.903Z,14.27
2019-03-06T16:48:01.350Z,15.10
2019-03-06T16:50:32.325Z,15.00
2019-03-06T16:53:04.115Z,14.17
2019-03-06T16:55:34.891Z,15.50
2019-03-06T16:58:06.035Z,15.17
2019-03-06T17:00:37.382Z,15.53
2019-03-06T17:03:08.201Z,14.97
2019-03-06T17:05:39.434Z,16.00
2019-03-06T17:08:11.049Z,16.27
2019-03-06T17:10:41.919Z,15.90
2019-03-06T17:13:12.810Z,16.07
2019-03-06T17:15:43.766Z,15.80
2019-03-06T17:18:14.810Z,17.03
2019-03-06T17:20:46.025Z,15.70
2019-03-06T17:23:17.094Z,15.73
2019-03-06T17:25:48.054Z,16.83
2019-03-06T17:28:19.065Z,19.47
2019-03-06T17:30:50.115Z,22.33
2019-03-06T17:33:21.319Z,23.73
2019-03-06T17:35:51.996Z,20.10
2019-03-06T17:38:23.065Z,17.10
2019-03-06T17:40:53.984Z,17.27
2019-03-06T17:43:24.968Z,17.93
2019-03-06T17:45:55.899Z,17.40
2019-03-06T17:48:26.799Z,16.80
2019-03-06T17:50:57.655Z,18.03
2019-03-06T17:53:28.830Z,18.77
2019-03-06T17:55:59.969Z,17.50
2019-03-06T17:58:30.885Z,18.10
2019-03-06T18:01:07.974Z,18.20
2019-03-06T18:03:57.554Z,18.00
2019-03-06T18:06:28.584Z,17.90
2019-03-06T18:08:59.508Z,19.20
2019-03-06T18:11:30.444Z,18.40
2019-03-06T18:14:01.482Z,20.80
2019-03-06T18:16:32.399Z,19.27
2019-03-06T18:19:03.320Z,20.73
2019-03-06T18:21:34.499Z,20.80
2019-03-06T18:24:06.079Z,21.30
2019-03-06T18:26:38.015Z,22.50
2019-03-06T18:29:09.109Z,21.77
2019-03-06T18:31:40.235Z,22.30
2019-03-06T18:34:11.079Z,25.03
2019-03-06T18:36:42.014Z,24.93
2019-03-06T18:39:18.549Z,24.70
2019-03-06T18:41:49.665Z,25.50
2019-03-06T18:44:20.639Z,26.67
2019-03-06T18:46:51.649Z,25.80
2019-03-06T18:49:22.754Z,26.87
2019-03-06T18:51:53.915Z,25.93
2019-03-06T18:54:24.974Z,29.07
2019-03-06T18:56:55.774Z,29.60
2019-03-06T18:59:26.764Z,26.93
2019-03-06T19:01:57.849Z,25.83
2019-03-06T19:04:28.794Z,26.77
2019-03-06T19:06:59.834Z,29.73
2019-03-06T19:09:31.074Z,28.20
2019-03-06T19:12:02.094Z,28.33
2019-03-06T19:14:33.150Z,28.30
2019-03-06T19:17:04.260Z,30.90
2019-03-06T19:19:35.441Z,31.90
2019-03-06T19:22:06.694Z,28.63
2019-03-06T19:24:38.074Z,27.40
2019-03-06T19:27:09.219Z,27.27
2019-03-06T19:29:40.265Z,26.63
2019-03-06T19:32:11.330Z,28.43
2019-03-06T19:34:42.484Z,26.53
2019-03-06T19:37:13.349Z,27.37
2019-03-06T19:39:44.300Z,28.37
2019-03-06T19:42:15.404Z,28.10
2019-03-06T19:44:46.391Z,26.90
2019-03-06T19:47:17.510Z,29.07
2019-03-06T19:49:48.664Z,27.13
2019-03-06T19:52:19.599Z,29.40
2019-03-06T19:54:50.999Z,27.33
2019-03-06T19:57:22.039Z,26.63
2019-03-06T19:59:53.219Z,28.60
2019-03-06T20:02:24.431Z,28.67
2019-03-06T20:04:55.579Z,29.10
2019-03-06T20:07:26.611Z,29.73
2019-03-06T20:09:57.594Z,31.93
2019-03-06T20:12:28.465Z,31.27
2019-03-06T20:14:59.639Z,32.63
2019-03-06T20:17:30.992Z,32.83
2019-03-06T20:20:01.984Z,31.97
2019-03-06T20:22:33.071Z,31.43
2019-03-06T20:25:04.319Z,33.10
2019-03-06T20:27:35.515Z,31.73
2019-03-06T20:30:07.117Z,32.77
2019-03-06T20:32:38.121Z,31.53
2019-03-06T20:35:09.765Z,31.53
2019-03-06T20:37:40.865Z,31.37
2019-03-06T20:40:12.194Z,32.57
2019-03-06T20:42:43.434Z,33.57
2019-03-06T20:45:15.299Z,33.43
2019-03-06T20:47:46.799Z,33.33
2019-03-06T20:50:18.080Z,34.53
2019-03-06T20:52:50.354Z,33.37
2019-03-06T20:55:22.015Z,32.73
2019-03-06T20:57:53.386Z,33.30
2019-03-06T21:00:24.935Z,32.63
2019-03-06T21:02:56.400Z,31.47
2019-03-06T21:05:27.439Z,33.00
2019-03-06T21:07:58.325Z,33.33
2019-03-06T21:10:29.734Z,33.63
2019-03-06T21:13:01.204Z,33.20
2019-03-06T21:15:32.800Z,34.13
2019-03-06T21:18:04.056Z,34.37
2019-03-06T21:20:35.143Z,33.70
2019-03-06T21:23:06.309Z,34.70
2019-03-06T21:25:37.855Z,32.30
2019-03-06T21:28:08.856Z,34.57
2019-03-06T21:30:41.096Z,35.10
2019-03-06T21:33:12.225Z,34.50
2019-03-06T21:35:44.310Z,34.20
2019-03-06T21:38:15.619Z,33.33
2019-03-06T21:40:47.190Z,34.47
2019-03-06T21:43:18.299Z,34.03
2019-03-06T21:45:49.398Z,32.40
2019-03-06T21:48:20.490Z,34.67
2019-03-06T21:50:51.866Z,31.90
2019-03-06T21:53:23.049Z,32.17
2019-03-06T21:55:54.189Z,33.13
2019-03-06T21:58:25.286Z,30.77
2019-03-06T22:00:56.145Z,31.73
2019-03-06T22:03:27.080Z,30.97
2019-03-06T22:05:57.839Z,32.00
2019-03-06T22:08:28.834Z,33.23
2019-03-06T22:10:59.784Z,33.20
2019-03-06T22:13:30.599Z,30.57
2019-03-06T22:16:01.594Z,33.50
2019-03-06T22:18:32.509Z,32.40
2019-03-06T22:21:03.239Z,33.00
2019-03-06T22:23:34.044Z,33.17
2019-03-06T22:26:04.839Z,34.23
2019-03-06T22:28:35.682Z,33.33
2019-03-06T22:31:06.770Z,34.07
2019-03-06T22:33:37.605Z,32.73
2019-03-06T22:36:08.499Z,31.57
2019-03-06T22:38:39.460Z,31.63
2019-03-06T22:41:10.384Z,31.63
2019-03-06T22:43:41.276Z,33.90
2019-03-06T22:46:12.198Z,31.70
2019-03-06T22:48:43.154Z,31.87
2019-03-06T22:51:14.159Z,31.83
2019-03-06T22:53:45.004Z,30.43
2019-03-06T22:56:16.039Z,32.00
2019-03-06T22:58:46.974Z,30.73
2019-03-06T23:01:24.739Z,31.47
2019-03-06T23:03:55.939Z,31.70
2019-03-06T23:06:26.770Z,31.40
2019-03-06T23:08:57.665Z,30.67
2019-03-06T23:11:28.549Z,31.07
2019-03-06T23:13:59.449Z,31.80
2019-03-06T23:16:30.289Z,29.83
2019-03-06T23:19:01.279Z,31.30
2019-03-06T23:21:32.084Z,30.40
2019-03-06T23:24:03.044Z,30.60
2019-03-06T23:26:42.451Z,30.43
2019-03-06T23:29:06.439Z,29.20
2019-03-06T23:31:37.399Z,28.73
2019-03-06T23:34:08.194Z,29.00
2019-03-06T23:36:39.083Z,29.13
2019-03-06T23:39:15.669Z,29.40
2019-03-06T23:41:46.591Z,28.80
2019-03-06T23:44:17.884Z,27.87
2019-03-06T23:46:48.716Z,28.30
2019-03-06T23:49:19.529Z,28.77
2019-03-06T23:51:54.519Z,30.20
2019-03-06T23:54:25.295Z,28.97
2019-03-06T23:56:56.474Z,29.60
2019-03-06T23:59:27.259Z,31.33
